sensor_id;sensor_type;location;lat;lon;timestamp;pressure;altitude;pressure_sealevel;temperature;humidity
57610;BME280;43435;46.186;9.024;2023-08-17T12:13:31;98567.97;;;30.67;45.62
57610;BME280;43435;46.186;9.024;2023-08-17T12:15:57;98559.59;;;30.63;45.33
57610;BME280;43435;46.186;9.024;2023-08-17T12:18:24;98560.34;;;30.72;45.26
57610;BME280;43435;46.186;9.024;2023-08-17T12:20:53;98552.03;;;30.81;44.77
57610;BME280;43435;46.186;9.024;2023-08-17T12:23:18;98555.31;;;30.95;43.82
57610;BME280;43435;46.186;9.024;2023-08-17T12:25:43;98554.31;;;31.00;43.91
57610;BME280;43435;46.186;9.024;2023-08-17T12:28:11;98561.44;;;31.01;44.06
57610;BME280;43435;46.186;9.024;2023-08-17T12:30:37;98544.84;;;31.10;43.66
57610;BME280;43435;46.186;9.024;2023-08-17T12:33:02;98546.44;;;31.11;42.62
57610;BME280;43435;46.186;9.024;2023-08-17T12:35:28;98535.25;;;30.95;44.40
57610;BME280;43435;46.186;9.024;2023-08-17T12:37:53;98544.31;;;30.95;44.46
57610;BME280;43435;46.186;9.024;2023-08-17T12:40:19;98549.53;;;31.09;42.36
57610;BME280;43435;46.186;9.024;2023-08-17T12:42:44;98542.69;;;31.15;42.29
57610;BME280;43435;46.186;9.024;2023-08-17T12:45:09;98549.06;;;31.07;42.15
57610;BME280;43435;46.186;9.024;2023-08-17T12:47:34;98544.97;;;30.92;43.28
57610;BME280;43435;46.186;9.024;2023-08-17T12:50:00;98546.00;;;30.88;43.75
57610;BME280;43435;46.186;9.024;2023-08-17T12:52:25;98547.16;;;30.87;44.17
57610;BME280;43435;46.186;9.024;2023-08-17T12:54:50;98553.09;;;30.89;43.54
57610;BME280;43435;46.186;9.024;2023-08-17T12:57:16;98536.19;;;30.99;42.85
57610;BME280;43435;46.186;9.024;2023-08-17T12:59:41;98548.53;;;30.93;43.84
57610;BME280;43435;46.186;9.024;2023-08-17T13:02:06;98539.31;;;31.10;42.68
57610;BME280;43435;46.186;9.024;2023-08-17T13:04:31;98544.47;;;31.11;42.58
57610;BME280;43435;46.186;9.024;2023-08-17T13:06:56;98544.88;;;31.22;42.00
57610;BME280;43435;46.186;9.024;2023-08-17T13:09:22;98539.47;;;31.46;40.56
57610;BME280;43435;46.186;9.024;2023-08-17T13:11:47;98546.28;;;31.61;40.77
57610;BME280;43435;46.186;9.024;2023-08-17T13:14:13;98539.41;;;31.67;39.46
57610;BME280;43435;46.186;9.024;2023-08-17T13:16:38;98545.88;;;31.96;38.74
57610;BME280;43435;46.186;9.024;2023-08-17T13:19:04;98538.72;;;31.83;39.13
57610;BME280;43435;46.186;9.024;2023-08-17T13:21:29;98539.53;;;31.71;39.58
57610;BME280;43435;46.186;9.024;2023-08-17T13:23:54;98534.56;;;31.64;40.23
57610;BME280;43435;46.186;9.024;2023-08-17T13:26:21;98545.41;;;31.82;40.71
57610;BME280;43435;46.186;9.024;2023-08-17T13:28:47;98534.81;;;31.84;41.22
57610;BME280;43435;46.186;9.024;2023-08-17T13:31:12;98536.91;;;31.87;40.91
57610;BME280;43435;46.186;9.024;2023-08-17T13:33:37;98525.69;;;32.04;39.82
57610;BME280;43435;46.186;9.024;2023-08-17T13:36:02;98529.78;;;32.47;37.89
57610;BME280;43435;46.186;9.024;2023-08-17T13:38:27;98534.94;;;32.36;39.44
57610;BME280;43435;46.186;9.024;2023-08-17T13:40:53;98544.03;;;32.37;38.10
57610;BME280;43435;46.186;9.024;2023-08-17T13:43:18;98543.72;;;32.26;37.66
57610;BME280;43435;46.186;9.024;2023-08-17T13:45:43;98543.34;;;31.91;38.00
57610;BME280;43435;46.186;9.024;2023-08-17T13:48:08;98550.66;;;31.74;37.82
57610;BME280;43435;46.186;9.024;2023-08-17T13:50:37;98553.50;;;31.66;37.51
57610;BME280;43435;46.186;9.024;2023-08-17T13:53:02;98569.25;;;31.65;36.88
57610;BME280;43435;46.186;9.024;2023-08-17T13:55:28;98578.66;;;31.64;36.80
57610;BME280;43435;46.186;9.024;2023-08-17T13:57:54;98610.94;;;31.31;37.95
57610;BME280;43435;46.186;9.024;2023-08-17T14:00:20;98597.16;;;31.31;36.65
57610;BME280;43435;46.186;9.024;2023-08-17T14:02:46;98600.34;;;31.54;34.91
57610;BME280;43435;46.186;9.024;2023-08-17T14:05:11;98583.41;;;31.31;35.64
57610;BME280;43435;46.186;9.024;2023-08-17T14:07:36;98636.63;;;30.93;34.86
57610;BME280;43435;46.186;9.024;2023-08-17T14:10:01;98607.06;;;30.60;34.91
57610;BME280;43435;46.186;9.024;2023-08-17T14:12:27;98607.22;;;30.55;34.47
57610;BME280;43435;46.186;9.024;2023-08-17T14:14:52;98612.38;;;30.36;33.71
57610;BME280;43435;46.186;9.024;2023-08-17T14:17:17;98639.38;;;30.33;33.67
57610;BME280;43435;46.186;9.024;2023-08-17T14:19:43;98631.59;;;29.97;33.94
57610;BME280;43435;46.186;9.024;2023-08-17T14:22:08;98619.78;;;29.97;32.92
